PAEM Airport Information

Runway Information
Runway 16 Length 4601 ft width 100 ft
Elevation 6 ft Threshold 0 ft Heading 177
Runway 34 Length 4601 ft Width 100 ft
Elevation 6 ft Threshold 0 ft Heading 357
Airport Frequencies
Type AWOS Name AWOS 3 Frequency 135.35 MHZ
Type CNTR Name ANCHORAGE Frequency 132.5 MHZ
Type CTAF Name CTAF Frequency 122.9 MHZ
Type FSS Name KENAI RDO Frequency 122.55 MHZ
Type MISC Name TWEB Frequency 177.8 MHZ
Airport Navaids
Type VOR-DME Name Emmonak Frequency 117800 KHZ
Airport Weather Information & NOTAM
ADDS - METARS form results

(0135 UTC 23 April 2018)
 
METAR text: PAEM 230056Z AUTO 05017G22KT 10SM SCT075 02/M03 A2958 RMK AO2 SLP077 T00221028 FZRANO
Conditions at: PAEM (EMMONAK , AK, US) observed 0056 UTC 23 April 2018
Temperature: 2.2°C (36°F)
Dewpoint: -2.8°C (27°F) [RH = 69%]
Pressure (altimeter): 29.58 inches Hg (1001.8 mb)
[Sea-level pressure: 1007.7 mb]
Winds: from the NE (50 degrees) at 20 MPH (17 knots; 8.8 m/s)
gusting to 25 MPH (22 knots; 11.4 m/s)
Visibility: 10 or more miles (16+ km)
Ceiling: at least 12,000 feet AGL
Clouds: scattered clouds at 7500 feet AGL
Weather: automated observation with no human augmentation;
there may or may not be significant weather present at this time